SDM6725 UNKL-UZTT
Flight info
| Callsign | SDM6725 |
|---|---|
| Flight time | 3h 17m |
| Altitude | 34000 |
| Route | N0460F340 ROVNO R823 BAKMI B156 KUDEB G96 ADARO N37 SOMIP N102 ABMIK M34 TENRO N102 FODIK P178 DOSOR |
| Aircraft | B738/M-V/N |
Departure
| Time | 2026-05-04 16:05 |
|---|---|
| Airport | Krasnoyarsk International Airport (UNKL) |
Arrival
| Time | 2026-05-04 19:23 |
|---|---|
| Airport | Tashkent International Airport (UZTT) |
| Time | Latitude | Longitude | Altitude | Speed | Heading |
|---|---|---|---|---|---|
| 2026-05-04 15:52 | 56.17920 | 92.48062 | 956 ft | 0 kts | 23° |
| 2026-05-04 16:00 | 56.17923 | 92.48065 | 956 ft | 5 kts | 23° |
| 2026-05-04 16:00 | 56.17986 | 92.48050 | 955 ft | 11 kts | 301° |
| 2026-05-04 16:00 | 56.17955 | 92.47944 | 956 ft | 11 kts | 204° |
| 2026-05-04 16:01 | 56.17885 | 92.47891 | 954 ft | 11 kts | 203° |
| 2026-05-04 16:01 | 56.17815 | 92.47838 | 953 ft | 12 kts | 203° |
| 2026-05-04 16:01 | 56.17725 | 92.47767 | 953 ft | 17 kts | 200° |
| 2026-05-04 16:01 | 56.17639 | 92.47898 | 954 ft | 22 kts | 113° |
| 2026-05-04 16:02 | 56.17557 | 92.48241 | 953 ft | 40 kts | 114° |
| 2026-05-04 16:02 | 56.17430 | 92.48759 | 953 ft | 50 kts | 113° |
| 2026-05-04 16:02 | 56.17124 | 92.50048 | 950 ft | 62 kts | 113° |
| 2026-05-04 16:03 | 56.16958 | 92.50747 | 955 ft | 55 kts | 113° |
| 2026-05-04 16:03 | 56.16813 | 92.51354 | 953 ft | 51 kts | 113° |
| 2026-05-04 16:03 | 56.16701 | 92.51861 | 955 ft | 29 kts | 95° |
| 2026-05-04 16:03 | 56.16706 | 92.52020 | 952 ft | 7 kts | 130° |
| 2026-05-04 16:04 | 56.16677 | 92.52008 | 953 ft | 4 kts | 228° |
| 2026-05-04 16:04 | 56.16740 | 92.51663 | 954 ft | 55 kts | 294° |
| 2026-05-04 16:04 | 56.17000 | 92.50561 | 952 ft | 132 kts | 293° |
| 2026-05-04 16:05 | 56.17433 | 92.48728 | 1095 ft | 183 kts | 291° |
| 2026-05-04 16:05 | 56.17902 | 92.46492 | 1886 ft | 194 kts | 289° |
| 2026-05-04 16:05 | 56.17728 | 92.42070 | 3800 ft | 200 kts | 238° |
| 2026-05-04 16:06 | 56.16595 | 92.40350 | 4002 ft | 230 kts | 209° |
| 2026-05-04 16:06 | 56.11981 | 92.40530 | 5048 ft | 274 kts | 174° |
| 2026-05-04 16:07 | 56.09395 | 92.41143 | 5939 ft | 283 kts | 183° |
| 2026-05-04 16:07 | 56.04811 | 92.35815 | 8386 ft | 272 kts | 237° |
| 2026-05-04 16:08 | 56.03662 | 92.33051 | 9193 ft | 275 kts | 238° |
| 2026-05-04 16:08 | 56.00099 | 92.24346 | 10634 ft | 317 kts | 238° |
| 2026-05-04 16:09 | 55.97387 | 92.17819 | 11744 ft | 337 kts | 238° |
| 2026-05-04 16:09 | 55.94542 | 92.11055 | 13211 ft | 344 kts | 239° |
| 2026-05-04 16:10 | 55.91629 | 92.04160 | 14595 ft | 352 kts | 239° |
| 2026-05-04 16:11 | 55.87138 | 91.93574 | 16544 ft | 362 kts | 239° |
| 2026-05-04 16:11 | 55.85608 | 91.89977 | 17175 ft | 366 kts | 239° |
| 2026-05-04 16:12 | 55.80929 | 91.79012 | 18127 ft | 372 kts | 239° |
| 2026-05-04 16:12 | 55.76161 | 91.67894 | 19404 ft | 378 kts | 239° |
| 2026-05-04 16:13 | 55.72951 | 91.60435 | 20539 ft | 384 kts | 239° |
| 2026-05-04 16:13 | 55.69677 | 91.52843 | 21583 ft | 390 kts | 239° |
| 2026-05-04 16:14 | 55.66374 | 91.45212 | 22624 ft | 396 kts | 240° |
| 2026-05-04 16:14 | 55.62987 | 91.37413 | 23565 ft | 402 kts | 239° |
| 2026-05-04 16:15 | 55.57818 | 91.25560 | 24806 ft | 409 kts | 240° |
| 2026-05-04 16:16 | 55.54311 | 91.17546 | 25599 ft | 414 kts | 240° |
| 2026-05-04 16:16 | 55.49197 | 91.05188 | 26700 ft | 416 kts | 245° |
| 2026-05-04 16:17 | 55.45786 | 90.96896 | 27486 ft | 424 kts | 239° |
| 2026-05-04 16:18 | 55.40198 | 90.84614 | 28505 ft | 431 kts | 239° |
| 2026-05-04 16:18 | 55.38321 | 90.80479 | 28837 ft | 433 kts | 239° |
| 2026-05-04 16:19 | 55.32684 | 90.67960 | 29884 ft | 435 kts | 240° |
| 2026-05-04 16:19 | 55.28943 | 90.59645 | 30685 ft | 433 kts | 240° |
| 2026-05-04 16:20 | 55.23344 | 90.47227 | 31646 ft | 432 kts | 239° |
| 2026-05-04 16:20 | 55.19608 | 90.38976 | 32246 ft | 432 kts | 239° |
| 2026-05-04 16:21 | 55.14048 | 90.26755 | 33212 ft | 429 kts | 239° |
| 2026-05-04 16:22 | 55.10327 | 90.18609 | 33847 ft | 427 kts | 238° |
| 2026-05-04 16:22 | 55.04743 | 90.06427 | 34202 ft | 431 kts | 238° |
| 2026-05-04 16:23 | 54.99165 | 89.94339 | 34195 ft | 422 kts | 238° |
| 2026-05-04 16:25 | 54.88761 | 89.71918 | 34196 ft | 419 kts | 238° |
| 2026-05-04 16:26 | 54.75943 | 89.44577 | 34199 ft | 419 kts | 238° |
| 2026-05-04 16:28 | 54.66764 | 89.25193 | 34210 ft | 417 kts | 238° |
| 2026-05-04 16:28 | 54.61172 | 89.13440 | 34554 ft | 424 kts | 237° |
| 2026-05-04 16:29 | 54.53687 | 88.97827 | 35387 ft | 423 kts | 237° |
| 2026-05-04 16:30 | 54.48066 | 88.86162 | 36007 ft | 422 kts | 237° |
| 2026-05-04 16:31 | 54.44343 | 88.78462 | 36197 ft | 422 kts | 237° |
| 2026-05-04 16:32 | 54.33047 | 88.55248 | 36487 ft | 425 kts | 236° |
| 2026-05-04 16:33 | 54.29262 | 88.47524 | 36943 ft | 422 kts | 236° |
| 2026-05-04 16:33 | 54.25478 | 88.39823 | 37243 ft | 424 kts | 236° |
| 2026-05-04 16:34 | 54.21686 | 88.32129 | 37602 ft | 422 kts | 236° |
| 2026-05-04 16:34 | 54.19787 | 88.28286 | 37752 ft | 422 kts | 236° |
| 2026-05-04 16:35 | 54.14092 | 88.16795 | 38163 ft | 420 kts | 236° |
| 2026-05-04 16:35 | 54.08409 | 88.05378 | 38208 ft | 422 kts | 236° |
| 2026-05-04 16:36 | 54.02675 | 87.93910 | 38194 ft | 425 kts | 236° |
| 2026-05-04 16:37 | 53.97812 | 87.84231 | 38196 ft | 426 kts | 235° |
| 2026-05-04 16:38 | 53.90858 | 87.70459 | 38198 ft | 423 kts | 235° |
| 2026-05-04 16:39 | 53.81407 | 87.51865 | 38182 ft | 411 kts | 236° |
| 2026-05-04 16:40 | 53.73944 | 87.37265 | 38203 ft | 413 kts | 236° |
| 2026-05-04 16:41 | 53.64424 | 87.18767 | 38189 ft | 423 kts | 235° |
| 2026-05-04 16:43 | 53.54748 | 87.00134 | 38182 ft | 417 kts | 235° |
| 2026-05-04 16:43 | 53.49037 | 86.89194 | 38190 ft | 415 kts | 235° |
| 2026-05-04 16:45 | 53.37507 | 86.67192 | 38190 ft | 418 kts | 238° |
| 2026-05-04 16:46 | 53.32589 | 86.55475 | 38185 ft | 406 kts | 242° |
| 2026-05-04 16:46 | 53.29412 | 86.47684 | 38200 ft | 406 kts | 241° |
| 2026-05-04 16:47 | 53.23501 | 86.33419 | 38196 ft | 412 kts | 241° |
| 2026-05-04 16:48 | 53.17514 | 86.19154 | 38183 ft | 412 kts | 240° |
| 2026-05-04 16:49 | 53.12031 | 86.06177 | 38176 ft | 400 kts | 240° |
| 2026-05-04 16:50 | 53.06137 | 85.92268 | 38193 ft | 401 kts | 240° |
| 2026-05-04 16:51 | 53.01270 | 85.80839 | 38185 ft | 406 kts | 240° |
| 2026-05-04 16:52 | 52.94700 | 85.65512 | 38172 ft | 405 kts | 240° |
| 2026-05-04 16:53 | 52.89840 | 85.54242 | 38178 ft | 397 kts | 240° |
| 2026-05-04 16:54 | 52.83454 | 85.39492 | 38178 ft | 392 kts | 240° |
| 2026-05-04 16:55 | 52.73774 | 85.17280 | 38185 ft | 402 kts | 239° |
| 2026-05-04 16:56 | 52.65660 | 84.98835 | 38189 ft | 398 kts | 239° |
| 2026-05-04 16:57 | 52.60766 | 84.87762 | 38184 ft | 400 kts | 239° |
| 2026-05-04 16:58 | 52.54233 | 84.73069 | 38183 ft | 395 kts | 239° |
| 2026-05-04 17:00 | 52.44513 | 84.51346 | 38195 ft | 398 kts | 239° |
| 2026-05-04 17:01 | 52.36251 | 84.33035 | 38181 ft | 398 kts | 239° |
| 2026-05-04 17:02 | 52.29729 | 84.18680 | 38191 ft | 390 kts | 239° |
| 2026-05-04 17:03 | 52.24880 | 84.08049 | 38194 ft | 389 kts | 239° |
| 2026-05-04 17:03 | 52.19983 | 83.97348 | 38215 ft | 396 kts | 239° |
| 2026-05-04 17:04 | 52.13370 | 83.82990 | 38195 ft | 396 kts | 239° |
| 2026-05-04 17:05 | 52.06747 | 83.68687 | 38204 ft | 397 kts | 238° |
| 2026-05-04 17:06 | 52.01724 | 83.57886 | 38214 ft | 401 kts | 238° |
| 2026-05-04 17:07 | 51.97219 | 83.48243 | 38206 ft | 404 kts | 238° |
| 2026-05-04 17:07 | 51.93238 | 83.39751 | 38192 ft | 405 kts | 238° |
| 2026-05-04 17:08 | 51.88109 | 83.28853 | 38187 ft | 405 kts | 238° |
| 2026-05-04 17:09 | 51.84710 | 83.21661 | 38191 ft | 399 kts | 238° |
| 2026-05-04 17:09 | 51.81339 | 83.14544 | 38188 ft | 398 kts | 238° |
| 2026-05-04 17:10 | 51.72955 | 82.96919 | 38193 ft | 397 kts | 237° |
| 2026-05-04 17:11 | 51.69575 | 82.89847 | 38191 ft | 399 kts | 237° |
| 2026-05-04 17:12 | 51.64456 | 82.79174 | 38187 ft | 403 kts | 237° |
| 2026-05-04 17:13 | 51.55768 | 82.61167 | 38181 ft | 408 kts | 237° |
| 2026-05-04 17:14 | 51.48793 | 82.46803 | 38185 ft | 408 kts | 237° |
| 2026-05-04 17:15 | 51.43575 | 82.36105 | 38184 ft | 408 kts | 237° |
| 2026-05-04 17:16 | 51.36562 | 82.21800 | 38182 ft | 408 kts | 236° |
| 2026-05-04 17:17 | 51.30112 | 82.08712 | 38175 ft | 410 kts | 236° |
| 2026-05-04 17:18 | 51.23013 | 81.94383 | 38165 ft | 412 kts | 236° |
| 2026-05-04 17:19 | 51.15875 | 81.80056 | 38175 ft | 414 kts | 236° |
| 2026-05-04 17:20 | 51.08689 | 81.65713 | 38175 ft | 415 kts | 236° |
| 2026-05-04 17:20 | 51.03273 | 81.54954 | 38174 ft | 416 kts | 235° |
| 2026-05-04 17:21 | 50.96033 | 81.40643 | 38182 ft | 417 kts | 235° |
| 2026-05-04 17:22 | 50.92395 | 81.33481 | 38179 ft | 417 kts | 235° |
| 2026-05-04 17:23 | 50.85124 | 81.19228 | 38177 ft | 415 kts | 235° |
| 2026-05-04 17:24 | 50.79648 | 81.08541 | 38175 ft | 418 kts | 235° |
| 2026-05-04 17:25 | 50.72269 | 80.94214 | 38173 ft | 422 kts | 235° |
| 2026-05-04 17:26 | 50.64832 | 80.79854 | 38177 ft | 423 kts | 235° |
| 2026-05-04 17:27 | 50.55505 | 80.61954 | 38187 ft | 428 kts | 236° |
| 2026-05-04 17:28 | 50.47814 | 80.47279 | 38186 ft | 440 kts | 236° |
| 2026-05-04 17:29 | 50.35889 | 80.24699 | 38191 ft | 455 kts | 236° |
| 2026-05-04 17:31 | 50.25025 | 80.06318 | 38179 ft | 465 kts | 232° |
| 2026-05-04 17:32 | 50.14037 | 79.88121 | 38178 ft | 453 kts | 232° |
| 2026-05-04 17:33 | 50.05358 | 79.73764 | 38194 ft | 459 kts | 232° |
| 2026-05-04 17:34 | 49.96530 | 79.59261 | 38192 ft | 464 kts | 232° |
| 2026-05-04 17:35 | 49.85556 | 79.41347 | 38193 ft | 452 kts | 231° |
| 2026-05-04 17:36 | 49.81224 | 79.34310 | 38201 ft | 450 kts | 231° |
| 2026-05-04 17:36 | 49.76930 | 79.27353 | 38206 ft | 449 kts | 231° |
| 2026-05-04 17:37 | 49.72612 | 79.20372 | 38211 ft | 449 kts | 231° |
| 2026-05-04 17:37 | 49.68282 | 79.13389 | 38213 ft | 450 kts | 231° |
| 2026-05-04 17:38 | 49.63936 | 79.06400 | 38212 ft | 452 kts | 231° |
| 2026-05-04 17:38 | 49.59572 | 78.99402 | 38213 ft | 453 kts | 231° |
| 2026-05-04 17:39 | 49.52988 | 78.88878 | 38219 ft | 455 kts | 231° |
| 2026-05-04 17:39 | 49.48586 | 78.81874 | 38217 ft | 456 kts | 231° |
| 2026-05-04 17:40 | 49.44171 | 78.74874 | 38213 ft | 456 kts | 231° |
| 2026-05-04 17:40 | 49.39785 | 78.67936 | 38220 ft | 456 kts | 231° |
| 2026-05-04 17:41 | 49.35367 | 78.60964 | 38221 ft | 455 kts | 231° |
| 2026-05-04 17:41 | 49.30953 | 78.54017 | 38218 ft | 454 kts | 231° |
| 2026-05-04 17:42 | 49.26544 | 78.47095 | 38230 ft | 453 kts | 231° |
| 2026-05-04 17:42 | 49.22143 | 78.40207 | 38227 ft | 452 kts | 231° |
| 2026-05-04 17:43 | 49.17748 | 78.33343 | 38225 ft | 451 kts | 231° |
| 2026-05-04 17:43 | 49.13356 | 78.26504 | 38233 ft | 450 kts | 231° |
| 2026-05-04 17:44 | 49.08963 | 78.19682 | 38230 ft | 450 kts | 231° |
| 2026-05-04 17:44 | 49.04581 | 78.12891 | 38232 ft | 449 kts | 231° |
| 2026-05-04 17:45 | 49.00203 | 78.06128 | 38230 ft | 448 kts | 231° |
| 2026-05-04 17:45 | 48.95860 | 77.99442 | 38238 ft | 447 kts | 231° |
| 2026-05-04 17:46 | 48.91488 | 77.92726 | 38243 ft | 446 kts | 231° |
| 2026-05-04 17:46 | 48.87122 | 77.86034 | 38240 ft | 446 kts | 230° |
| 2026-05-04 17:47 | 48.82759 | 77.79362 | 38247 ft | 445 kts | 230° |
| 2026-05-04 17:47 | 48.78390 | 77.72697 | 38244 ft | 445 kts | 230° |
| 2026-05-04 17:48 | 48.74019 | 77.66047 | 38246 ft | 445 kts | 230° |
| 2026-05-04 17:48 | 48.69641 | 77.59405 | 38245 ft | 446 kts | 230° |
| 2026-05-04 17:49 | 48.65245 | 77.52760 | 38245 ft | 446 kts | 230° |
| 2026-05-04 17:49 | 48.60855 | 77.46140 | 38244 ft | 446 kts | 230° |
| 2026-05-04 17:50 | 48.56456 | 77.39520 | 38240 ft | 446 kts | 230° |
| 2026-05-04 17:50 | 48.52051 | 77.32907 | 38236 ft | 447 kts | 230° |
| 2026-05-04 17:51 | 48.47639 | 77.26302 | 38233 ft | 447 kts | 230° |
| 2026-05-04 17:51 | 48.43220 | 77.19702 | 38232 ft | 447 kts | 229° |
| 2026-05-04 17:52 | 48.38824 | 77.13154 | 38231 ft | 447 kts | 229° |
| 2026-05-04 17:52 | 48.34397 | 77.06577 | 38226 ft | 447 kts | 229° |
| 2026-05-04 17:53 | 48.29965 | 77.00009 | 38220 ft | 448 kts | 229° |
| 2026-05-04 17:53 | 48.25529 | 76.93451 | 38229 ft | 447 kts | 229° |
| 2026-05-04 17:54 | 48.21090 | 76.86907 | 38211 ft | 447 kts | 229° |
| 2026-05-04 17:54 | 48.16648 | 76.80374 | 38204 ft | 447 kts | 229° |
| 2026-05-04 17:55 | 48.12202 | 76.73852 | 38210 ft | 447 kts | 229° |
| 2026-05-04 17:55 | 48.07758 | 76.67346 | 38209 ft | 447 kts | 229° |
| 2026-05-04 17:56 | 48.03312 | 76.60858 | 38203 ft | 447 kts | 229° |
| 2026-05-04 17:56 | 47.98865 | 76.54381 | 38195 ft | 447 kts | 228° |
| 2026-05-04 17:57 | 47.94421 | 76.47921 | 38192 ft | 446 kts | 228° |
| 2026-05-04 17:57 | 47.89974 | 76.41472 | 38190 ft | 446 kts | 228° |
| 2026-05-04 17:58 | 47.85550 | 76.35070 | 38187 ft | 446 kts | 228° |
| 2026-05-04 17:58 | 47.81088 | 76.28631 | 38185 ft | 446 kts | 228° |
| 2026-05-04 17:59 | 47.76628 | 76.22210 | 38179 ft | 446 kts | 228° |
| 2026-05-04 18:00 | 47.69926 | 76.12593 | 38180 ft | 446 kts | 227° |
| 2026-05-04 18:00 | 47.65458 | 76.06202 | 38175 ft | 446 kts | 227° |
| 2026-05-04 18:01 | 47.61017 | 75.99864 | 38172 ft | 445 kts | 227° |
| 2026-05-04 18:01 | 47.56544 | 75.93497 | 38172 ft | 445 kts | 227° |
| 2026-05-04 18:02 | 47.49838 | 75.83978 | 38166 ft | 445 kts | 227° |
| 2026-05-04 18:02 | 47.46116 | 75.78709 | 38162 ft | 445 kts | 227° |
| 2026-05-04 18:03 | 47.41642 | 75.72399 | 38164 ft | 445 kts | 227° |
| 2026-05-04 18:03 | 47.36436 | 75.65090 | 38162 ft | 444 kts | 226° |
| 2026-05-04 18:04 | 47.32685 | 75.59834 | 38161 ft | 444 kts | 226° |
| 2026-05-04 18:05 | 47.25963 | 75.50437 | 38149 ft | 444 kts | 226° |
| 2026-05-04 18:05 | 47.21485 | 75.44195 | 38153 ft | 443 kts | 226° |
| 2026-05-04 18:06 | 47.14804 | 75.34911 | 38149 ft | 442 kts | 226° |
| 2026-05-04 18:06 | 47.10335 | 75.28719 | 38147 ft | 442 kts | 226° |
| 2026-05-04 18:07 | 47.05865 | 75.22541 | 38146 ft | 441 kts | 226° |
| 2026-05-04 18:07 | 47.01387 | 75.16366 | 38141 ft | 442 kts | 226° |
| 2026-05-04 18:08 | 46.96905 | 75.10201 | 38137 ft | 442 kts | 226° |
| 2026-05-04 18:08 | 46.92417 | 75.04039 | 38139 ft | 442 kts | 226° |
| 2026-05-04 18:09 | 46.83087 | 74.92271 | 38139 ft | 444 kts | 220° |
| 2026-05-04 18:10 | 46.78183 | 74.86782 | 38127 ft | 444 kts | 220° |
| 2026-05-04 18:10 | 46.73321 | 74.81324 | 38130 ft | 443 kts | 220° |
| 2026-05-04 18:11 | 46.68443 | 74.75814 | 38121 ft | 443 kts | 220° |
| 2026-05-04 18:11 | 46.63593 | 74.70328 | 38120 ft | 441 kts | 220° |
| 2026-05-04 18:12 | 46.58758 | 74.64868 | 38127 ft | 440 kts | 220° |
| 2026-05-04 18:12 | 46.53918 | 74.59414 | 38128 ft | 441 kts | 220° |
| 2026-05-04 18:13 | 46.49059 | 74.53954 | 38122 ft | 442 kts | 220° |
| 2026-05-04 18:14 | 46.41744 | 74.45758 | 38121 ft | 443 kts | 219° |
| 2026-05-04 18:14 | 46.36884 | 74.40328 | 38118 ft | 444 kts | 219° |
| 2026-05-04 18:15 | 46.27044 | 74.29372 | 38123 ft | 450 kts | 219° |
| 2026-05-04 18:16 | 46.22065 | 74.23848 | 38122 ft | 452 kts | 219° |
| 2026-05-04 18:16 | 46.17080 | 74.18332 | 38106 ft | 450 kts | 219° |
| 2026-05-04 18:17 | 46.09658 | 74.10144 | 38113 ft | 446 kts | 219° |
| 2026-05-04 18:18 | 46.02275 | 74.02023 | 38114 ft | 444 kts | 219° |
| 2026-05-04 18:18 | 45.97423 | 73.96505 | 38117 ft | 447 kts | 223° |
| 2026-05-04 18:19 | 45.90572 | 73.87289 | 38113 ft | 451 kts | 225° |
| 2026-05-04 18:19 | 45.86024 | 73.81105 | 38110 ft | 450 kts | 225° |
| 2026-05-04 18:20 | 45.81479 | 73.75013 | 38117 ft | 449 kts | 224° |
| 2026-05-04 18:20 | 45.76893 | 73.68919 | 38120 ft | 449 kts | 224° |
| 2026-05-04 18:21 | 45.72304 | 73.62844 | 38119 ft | 449 kts | 224° |
| 2026-05-04 18:21 | 45.67714 | 73.56782 | 38118 ft | 449 kts | 224° |
| 2026-05-04 18:22 | 45.63124 | 73.50731 | 38119 ft | 449 kts | 224° |
| 2026-05-04 18:22 | 45.58533 | 73.44693 | 38123 ft | 449 kts | 224° |
| 2026-05-04 18:23 | 45.53933 | 73.38656 | 38121 ft | 449 kts | 224° |
| 2026-05-04 18:23 | 45.49328 | 73.32628 | 38126 ft | 450 kts | 224° |
| 2026-05-04 18:24 | 45.44746 | 73.26642 | 38125 ft | 450 kts | 224° |
| 2026-05-04 18:24 | 45.40123 | 73.20618 | 38126 ft | 450 kts | 224° |
| 2026-05-04 18:25 | 45.35498 | 73.14605 | 38123 ft | 451 kts | 224° |
| 2026-05-04 18:25 | 45.30863 | 73.08594 | 38121 ft | 451 kts | 223° |
| 2026-05-04 18:26 | 45.26223 | 73.02589 | 38120 ft | 451 kts | 223° |
| 2026-05-04 18:26 | 45.21578 | 72.96592 | 38116 ft | 451 kts | 223° |
| 2026-05-04 18:27 | 45.16931 | 72.90606 | 38118 ft | 451 kts | 223° |
| 2026-05-04 18:27 | 45.12310 | 72.84667 | 38115 ft | 451 kts | 223° |
| 2026-05-04 18:28 | 45.07658 | 72.78703 | 38108 ft | 451 kts | 223° |
| 2026-05-04 18:28 | 45.03005 | 72.72750 | 38104 ft | 450 kts | 223° |
| 2026-05-04 18:29 | 44.98359 | 72.66820 | 38094 ft | 449 kts | 223° |
| 2026-05-04 18:29 | 44.93722 | 72.60915 | 38097 ft | 448 kts | 223° |
| 2026-05-04 18:30 | 44.86777 | 72.52095 | 38093 ft | 448 kts | 223° |
| 2026-05-04 18:31 | 44.82142 | 72.46226 | 38094 ft | 448 kts | 223° |
| 2026-05-04 18:31 | 44.77501 | 72.40363 | 38093 ft | 448 kts | 223° |
| 2026-05-04 18:32 | 44.72851 | 72.34501 | 38092 ft | 449 kts | 223° |
| 2026-05-04 18:32 | 44.68187 | 72.28634 | 38092 ft | 450 kts | 223° |
| 2026-05-04 18:33 | 44.63511 | 72.22766 | 38089 ft | 451 kts | 222° |
| 2026-05-04 18:33 | 44.58849 | 72.16929 | 38089 ft | 452 kts | 222° |
| 2026-05-04 18:34 | 44.54146 | 72.11054 | 38085 ft | 453 kts | 222° |
| 2026-05-04 18:34 | 44.49439 | 72.05186 | 38083 ft | 453 kts | 222° |
| 2026-05-04 18:35 | 44.44727 | 71.99326 | 38081 ft | 453 kts | 222° |
| 2026-05-04 18:35 | 44.40016 | 71.93481 | 38082 ft | 453 kts | 222° |
| 2026-05-04 18:36 | 44.35300 | 71.87642 | 38083 ft | 453 kts | 222° |
| 2026-05-04 18:36 | 44.30580 | 71.81811 | 38075 ft | 453 kts | 222° |
| 2026-05-04 18:37 | 44.25863 | 71.75997 | 38076 ft | 453 kts | 222° |
| 2026-05-04 18:37 | 44.21139 | 71.70187 | 38074 ft | 452 kts | 222° |
| 2026-05-04 18:38 | 44.16417 | 71.64394 | 38074 ft | 452 kts | 222° |
| 2026-05-04 18:38 | 44.11691 | 71.58606 | 38073 ft | 452 kts | 222° |
| 2026-05-04 18:39 | 44.06996 | 71.52871 | 38069 ft | 452 kts | 222° |
| 2026-05-04 18:39 | 44.02269 | 71.47108 | 38073 ft | 452 kts | 222° |
| 2026-05-04 18:40 | 43.97535 | 71.41351 | 38074 ft | 452 kts | 222° |
| 2026-05-04 18:40 | 43.92797 | 71.35600 | 38069 ft | 452 kts | 222° |
| 2026-05-04 18:41 | 43.88055 | 71.29858 | 38069 ft | 452 kts | 222° |
| 2026-05-04 18:41 | 43.83310 | 71.24124 | 38068 ft | 452 kts | 221° |
| 2026-05-04 18:42 | 43.78566 | 71.18404 | 38066 ft | 453 kts | 221° |
| 2026-05-04 18:42 | 43.73811 | 71.12683 | 38068 ft | 453 kts | 221° |
| 2026-05-04 18:43 | 43.69056 | 71.06976 | 38064 ft | 453 kts | 221° |
| 2026-05-04 18:43 | 43.64287 | 71.01262 | 38063 ft | 453 kts | 221° |
| 2026-05-04 18:44 | 43.59527 | 70.95572 | 38048 ft | 447 kts | 221° |
| 2026-05-04 18:44 | 43.54886 | 70.90034 | 38056 ft | 438 kts | 221° |
| 2026-05-04 18:45 | 43.50328 | 70.84604 | 38058 ft | 435 kts | 221° |
| 2026-05-04 18:45 | 43.45773 | 70.79139 | 38065 ft | 433 kts | 222° |
| 2026-05-04 18:46 | 43.41240 | 70.73694 | 38067 ft | 432 kts | 222° |
| 2026-05-04 18:46 | 43.36696 | 70.68250 | 38067 ft | 433 kts | 222° |
| 2026-05-04 18:47 | 43.32133 | 70.62797 | 38061 ft | 436 kts | 222° |
| 2026-05-04 18:47 | 43.27516 | 70.57293 | 38067 ft | 442 kts | 222° |
| 2026-05-04 18:47 | 43.25190 | 70.54524 | 37929 ft | 445 kts | 222° |
| 2026-05-04 18:48 | 43.22843 | 70.51734 | 37634 ft | 443 kts | 221° |
| 2026-05-04 18:48 | 43.20556 | 70.49018 | 37361 ft | 438 kts | 221° |
| 2026-05-04 18:48 | 43.18271 | 70.46309 | 37088 ft | 432 kts | 221° |
| 2026-05-04 18:48 | 43.16009 | 70.43627 | 36827 ft | 429 kts | 221° |
| 2026-05-04 18:49 | 43.13753 | 70.40956 | 36575 ft | 429 kts | 221° |
| 2026-05-04 18:49 | 43.11491 | 70.38279 | 36324 ft | 429 kts | 221° |
| 2026-05-04 18:49 | 43.09234 | 70.35612 | 36073 ft | 427 kts | 221° |
| 2026-05-04 18:49 | 43.06991 | 70.32964 | 35823 ft | 425 kts | 221° |
| 2026-05-04 18:50 | 43.04757 | 70.30330 | 35575 ft | 423 kts | 221° |
| 2026-05-04 18:50 | 43.02533 | 70.27710 | 35328 ft | 421 kts | 221° |
| 2026-05-04 18:50 | 43.00321 | 70.25105 | 35082 ft | 419 kts | 221° |
| 2026-05-04 18:50 | 42.98113 | 70.22508 | 34844 ft | 419 kts | 221° |
| 2026-05-04 18:51 | 42.95904 | 70.19913 | 34626 ft | 419 kts | 221° |
| 2026-05-04 18:51 | 42.93695 | 70.17320 | 34383 ft | 417 kts | 221° |
| 2026-05-04 18:51 | 42.91498 | 70.14744 | 34149 ft | 416 kts | 221° |
| 2026-05-04 18:51 | 42.89307 | 70.12176 | 33887 ft | 414 kts | 221° |
| 2026-05-04 18:52 | 42.87124 | 70.09620 | 33615 ft | 413 kts | 221° |
| 2026-05-04 18:52 | 42.85681 | 70.07933 | 33439 ft | 412 kts | 221° |
| 2026-05-04 18:52 | 42.83504 | 70.05391 | 33171 ft | 412 kts | 221° |
| 2026-05-04 18:52 | 42.81333 | 70.02867 | 32903 ft | 410 kts | 221° |
| 2026-05-04 18:53 | 42.79165 | 70.00352 | 32637 ft | 408 kts | 221° |
| 2026-05-04 18:53 | 42.77019 | 69.97865 | 32352 ft | 403 kts | 220° |
| 2026-05-04 18:53 | 42.74895 | 69.95405 | 32013 ft | 399 kts | 221° |
| 2026-05-04 18:53 | 42.72789 | 69.92967 | 31648 ft | 396 kts | 220° |
| 2026-05-04 18:54 | 42.70702 | 69.90552 | 31290 ft | 393 kts | 220° |
| 2026-05-04 18:54 | 42.68631 | 69.88156 | 30941 ft | 390 kts | 220° |
| 2026-05-04 18:54 | 42.66573 | 69.85778 | 30586 ft | 387 kts | 220° |
| 2026-05-04 18:54 | 42.64529 | 69.83420 | 30243 ft | 385 kts | 220° |
| 2026-05-04 18:55 | 42.62548 | 69.80994 | 29849 ft | 382 kts | 226° |
| 2026-05-04 18:55 | 42.58956 | 69.75778 | 29123 ft | 374 kts | 227° |
| 2026-05-04 18:55 | 42.57202 | 69.73191 | 28742 ft | 371 kts | 227° |
| 2026-05-04 18:56 | 42.55460 | 69.70633 | 28400 ft | 367 kts | 227° |
| 2026-05-04 18:56 | 42.53725 | 69.68097 | 28028 ft | 365 kts | 227° |
| 2026-05-04 18:56 | 42.52028 | 69.65627 | 27693 ft | 361 kts | 227° |
| 2026-05-04 18:56 | 42.50319 | 69.63147 | 27337 ft | 359 kts | 227° |
| 2026-05-04 18:57 | 42.48619 | 69.60685 | 26996 ft | 356 kts | 227° |
| 2026-05-04 18:57 | 42.46932 | 69.58245 | 26656 ft | 354 kts | 227° |
| 2026-05-04 18:57 | 42.45255 | 69.55820 | 26320 ft | 351 kts | 227° |
| 2026-05-04 18:57 | 42.43591 | 69.53415 | 25993 ft | 349 kts | 227° |
| 2026-05-04 18:58 | 42.41938 | 69.51028 | 25660 ft | 346 kts | 227° |
| 2026-05-04 18:58 | 42.40295 | 69.48660 | 25336 ft | 344 kts | 227° |
| 2026-05-04 18:58 | 42.38650 | 69.46310 | 25010 ft | 342 kts | 224° |
| 2026-05-04 18:58 | 42.36799 | 69.44309 | 24690 ft | 340 kts | 212° |
| 2026-05-04 18:59 | 42.34719 | 69.42831 | 24424 ft | 336 kts | 202° |
| 2026-05-04 18:59 | 42.32543 | 69.41683 | 24115 ft | 335 kts | 200° |
| 2026-05-04 18:59 | 42.30368 | 69.40596 | 23795 ft | 333 kts | 200° |
| 2026-05-04 18:59 | 42.28194 | 69.39517 | 23462 ft | 332 kts | 200° |
| 2026-05-04 19:00 | 42.26030 | 69.38433 | 23076 ft | 331 kts | 200° |
| 2026-05-04 19:00 | 42.23879 | 69.37346 | 22741 ft | 329 kts | 200° |
| 2026-05-04 19:00 | 42.21770 | 69.36274 | 22408 ft | 327 kts | 200° |
| 2026-05-04 19:00 | 42.19649 | 69.35192 | 22082 ft | 325 kts | 200° |
| 2026-05-04 19:01 | 42.17543 | 69.34115 | 21766 ft | 323 kts | 200° |
| 2026-05-04 19:01 | 42.15448 | 69.33044 | 21441 ft | 321 kts | 200° |
| 2026-05-04 19:01 | 42.13366 | 69.31979 | 21126 ft | 319 kts | 200° |
| 2026-05-04 19:01 | 42.11293 | 69.30919 | 20813 ft | 318 kts | 200° |
| 2026-05-04 19:02 | 42.09231 | 69.29867 | 20504 ft | 316 kts | 200° |
| 2026-05-04 19:02 | 42.07172 | 69.28817 | 20189 ft | 315 kts | 200° |
| 2026-05-04 19:02 | 42.05129 | 69.27776 | 19874 ft | 314 kts | 200° |
| 2026-05-04 19:02 | 42.03126 | 69.26628 | 19563 ft | 313 kts | 207° |
| 2026-05-04 19:03 | 42.01215 | 69.25237 | 19259 ft | 311 kts | 209° |
| 2026-05-04 19:03 | 41.99327 | 69.23816 | 18952 ft | 311 kts | 208° |
| 2026-05-04 19:03 | 41.97436 | 69.22415 | 18646 ft | 310 kts | 208° |
| 2026-05-04 19:03 | 41.95514 | 69.21124 | 18322 ft | 309 kts | 197° |
| 2026-05-04 19:04 | 41.93404 | 69.20737 | 17990 ft | 306 kts | 178° |
| 2026-05-04 19:04 | 41.91289 | 69.20852 | 17669 ft | 304 kts | 176° |
| 2026-05-04 19:04 | 41.89182 | 69.21017 | 17354 ft | 302 kts | 176° |
| 2026-05-04 19:04 | 41.87115 | 69.21184 | 17043 ft | 300 kts | 176° |
| 2026-05-04 19:05 | 41.85010 | 69.21347 | 16742 ft | 298 kts | 176° |
| 2026-05-04 19:05 | 41.82971 | 69.21499 | 16449 ft | 296 kts | 176° |
| 2026-05-04 19:05 | 41.80916 | 69.21646 | 16151 ft | 294 kts | 176° |
| 2026-05-04 19:05 | 41.78875 | 69.21788 | 15857 ft | 293 kts | 177° |
| 2026-05-04 19:06 | 41.76843 | 69.21927 | 15561 ft | 291 kts | 177° |
| 2026-05-04 19:06 | 41.74826 | 69.22064 | 15266 ft | 289 kts | 177° |
| 2026-05-04 19:06 | 41.72817 | 69.22199 | 14971 ft | 288 kts | 177° |
| 2026-05-04 19:06 | 41.70819 | 69.22334 | 14686 ft | 287 kts | 177° |
| 2026-05-04 19:07 | 41.68830 | 69.22467 | 14396 ft | 286 kts | 177° |
| 2026-05-04 19:07 | 41.66847 | 69.22600 | 14102 ft | 285 kts | 177° |
| 2026-05-04 19:07 | 41.64869 | 69.22732 | 13797 ft | 284 kts | 177° |
| 2026-05-04 19:07 | 41.62891 | 69.22865 | 13453 ft | 284 kts | 177° |
| 2026-05-04 19:08 | 41.60921 | 69.22996 | 13129 ft | 283 kts | 177° |
| 2026-05-04 19:08 | 41.58961 | 69.23127 | 12826 ft | 281 kts | 177° |
| 2026-05-04 19:08 | 41.57008 | 69.23156 | 12459 ft | 281 kts | 188° |
| 2026-05-04 19:08 | 41.55190 | 69.22239 | 12140 ft | 281 kts | 213° |
| 2026-05-04 19:09 | 41.53815 | 69.20403 | 11836 ft | 281 kts | 236° |
| 2026-05-04 19:09 | 41.53051 | 69.18083 | 11579 ft | 275 kts | 255° |
| 2026-05-04 19:09 | 41.52640 | 69.15633 | 11302 ft | 265 kts | 255° |
| 2026-05-04 19:09 | 41.52146 | 69.13314 | 11021 ft | 255 kts | 250° |
| 2026-05-04 19:10 | 41.51543 | 69.11136 | 10729 ft | 246 kts | 246° |
| 2026-05-04 19:10 | 41.50859 | 69.09090 | 10464 ft | 237 kts | 243° |
| 2026-05-04 19:10 | 41.50113 | 69.07172 | 10215 ft | 230 kts | 239° |
| 2026-05-04 19:10 | 41.49318 | 69.05385 | 10082 ft | 217 kts | 237° |
| 2026-05-04 19:11 | 41.48500 | 69.03755 | 9903 ft | 208 kts | 233° |
| 2026-05-04 19:11 | 41.47643 | 69.02223 | 9685 ft | 203 kts | 231° |
| 2026-05-04 19:11 | 41.46747 | 69.00778 | 9482 ft | 202 kts | 228° |
| 2026-05-04 19:11 | 41.45800 | 68.99396 | 9279 ft | 202 kts | 225° |
| 2026-05-04 19:12 | 41.44802 | 68.98077 | 9075 ft | 202 kts | 223° |
| 2026-05-04 19:12 | 41.42657 | 68.95641 | 8666 ft | 202 kts | 217° |
| 2026-05-04 19:12 | 41.41535 | 68.94549 | 8446 ft | 199 kts | 214° |
| 2026-05-04 19:13 | 41.40379 | 68.93537 | 8253 ft | 198 kts | 212° |
| 2026-05-04 19:13 | 41.39193 | 68.92606 | 8048 ft | 197 kts | 209° |
| 2026-05-04 19:13 | 41.37979 | 68.91758 | 7846 ft | 197 kts | 206° |
| 2026-05-04 19:13 | 41.36733 | 68.90987 | 7643 ft | 198 kts | 204° |
| 2026-05-04 19:14 | 41.35456 | 68.90296 | 7428 ft | 199 kts | 201° |
| 2026-05-04 19:14 | 41.34148 | 68.89687 | 7238 ft | 200 kts | 198° |
| 2026-05-04 19:14 | 41.32829 | 68.89167 | 7031 ft | 201 kts | 195° |
| 2026-05-04 19:14 | 41.31470 | 68.88727 | 6820 ft | 201 kts | 193° |
| 2026-05-04 19:15 | 41.30091 | 68.88368 | 6605 ft | 201 kts | 191° |
| 2026-05-04 19:15 | 41.28720 | 68.88078 | 6379 ft | 198 kts | 188° |
| 2026-05-04 19:15 | 41.27365 | 68.87887 | 6150 ft | 194 kts | 185° |
| 2026-05-04 19:15 | 41.26022 | 68.87976 | 5754 ft | 200 kts | 157° |
| 2026-05-04 19:16 | 41.25114 | 68.89279 | 5457 ft | 196 kts | 107° |
| 2026-05-04 19:16 | 41.25157 | 68.91048 | 5335 ft | 194 kts | 85° |
| 2026-05-04 19:16 | 41.24824 | 68.92739 | 5209 ft | 187 kts | 122° |
| 2026-05-04 19:16 | 41.24215 | 68.94231 | 5116 ft | 181 kts | 117° |
| 2026-05-04 19:17 | 41.23659 | 68.95742 | 5041 ft | 184 kts | 117° |
| 2026-05-04 19:17 | 41.23117 | 68.97248 | 4950 ft | 177 kts | 117° |
| 2026-05-04 19:17 | 41.22804 | 68.98785 | 4853 ft | 172 kts | 88° |
| 2026-05-04 19:17 | 41.22910 | 69.00384 | 4820 ft | 177 kts | 86° |
| 2026-05-04 19:18 | 41.23043 | 69.02029 | 4627 ft | 179 kts | 84° |
| 2026-05-04 19:18 | 41.23202 | 69.03655 | 4522 ft | 174 kts | 84° |
| 2026-05-04 19:18 | 41.23367 | 69.05236 | 4394 ft | 174 kts | 83° |
| 2026-05-04 19:18 | 41.23534 | 69.06806 | 4171 ft | 166 kts | 83° |
| 2026-05-04 19:19 | 41.23692 | 69.08271 | 3978 ft | 159 kts | 83° |
| 2026-05-04 19:19 | 41.23847 | 69.09712 | 3768 ft | 155 kts | 83° |
| 2026-05-04 19:19 | 41.23997 | 69.11107 | 3561 ft | 154 kts | 83° |
| 2026-05-04 19:19 | 41.24152 | 69.12542 | 3369 ft | 155 kts | 83° |
| 2026-05-04 19:20 | 41.24303 | 69.13937 | 3169 ft | 155 kts | 83° |
| 2026-05-04 19:20 | 41.24455 | 69.15347 | 2963 ft | 154 kts | 83° |
| 2026-05-04 19:20 | 41.24606 | 69.16744 | 2765 ft | 153 kts | 83° |
| 2026-05-04 19:20 | 41.24759 | 69.18155 | 2563 ft | 151 kts | 82° |
| 2026-05-04 19:21 | 41.24907 | 69.19515 | 2364 ft | 149 kts | 83° |
| 2026-05-04 19:21 | 41.25047 | 69.20856 | 2144 ft | 146 kts | 82° |
| 2026-05-04 19:21 | 41.25185 | 69.22183 | 1911 ft | 144 kts | 82° |
| 2026-05-04 19:21 | 41.25335 | 69.23484 | 1770 ft | 144 kts | 81° |
| 2026-05-04 19:22 | 41.25480 | 69.24791 | 1600 ft | 143 kts | 81° |
| 2026-05-04 19:22 | 41.25626 | 69.26078 | 1452 ft | 135 kts | 81° |
| 2026-05-04 19:22 | 41.25754 | 69.27187 | 1403 ft | 109 kts | 81° |
| 2026-05-04 19:22 | 41.25838 | 69.28059 | 1416 ft | 78 kts | 82° |
| 2026-05-04 19:23 | 41.25895 | 69.28608 | 1416 ft | 40 kts | 81° |
| 2026-05-04 19:23 | 41.25967 | 69.28897 | 1412 ft | 22 kts | 23° |
| 2026-05-04 19:23 | 41.26075 | 69.28811 | 1412 ft | 19 kts | 315° |
| 2026-05-04 19:23 | 41.26158 | 69.28707 | 1411 ft | 10 kts | 318° |
| 2026-05-04 19:24 | 41.26185 | 69.28624 | 1408 ft | 11 kts | 276° |
| 2026-05-04 19:24 | 41.26190 | 69.28515 | 1406 ft | 13 kts | 272° |
| 2026-05-04 19:24 | 41.26191 | 69.28400 | 1410 ft | 12 kts | 266° |
| 2026-05-04 19:24 | 41.26178 | 69.28290 | 1411 ft | 12 kts | 259° |
| 2026-05-04 19:25 | 41.26165 | 69.28182 | 1410 ft | 12 kts | 263° |
| 2026-05-04 19:25 | 41.26157 | 69.28078 | 1405 ft | 11 kts | 262° |
| 2026-05-04 19:25 | 41.26146 | 69.27976 | 1403 ft | 11 kts | 260° |
| 2026-05-04 19:25 | 41.26148 | 69.27879 | 1399 ft | 11 kts | 311° |
| 2026-05-04 19:26 | 41.26219 | 69.27860 | 1402 ft | 10 kts | 347° |
| 2026-05-04 19:26 | 41.26236 | 69.27776 | 1398 ft | 10 kts | 267° |
| 2026-05-04 19:26 | 41.26232 | 69.27683 | 1397 ft | 10 kts | 268° |
| 2026-05-04 19:26 | 41.26230 | 69.27593 | 1396 ft | 10 kts | 268° |
| 2026-05-04 19:27 | 41.26208 | 69.27510 | 1397 ft | 10 kts | 256° |
| 2026-05-04 19:27 | 41.26201 | 69.27449 | 1397 ft | 0 kts | 264° |